createdAt,value
2023-05-01T00:01:31.762Z,71.42
2023-05-01T00:03:58.425Z,72.17
2023-05-01T00:06:25.271Z,72.77
2023-05-01T00:08:51.848Z,73.32
2023-05-01T00:11:18.317Z,73.01
2023-05-01T00:13:44.787Z,72.87
2023-05-01T00:16:11.679Z,71.46
2023-05-01T00:18:38.402Z,72.60
2023-05-01T00:21:05.000Z,72.34
2023-05-01T00:23:31.474Z,73.85
2023-05-01T00:25:58.017Z,74.74
2023-05-01T00:28:24.487Z,74.96
2023-05-01T00:30:51.191Z,76.94
2023-05-01T00:33:17.657Z,76.28
2023-05-01T00:35:45.177Z,77.40
2023-05-01T00:38:11.808Z,78.70
2023-05-01T00:40:44.725Z,76.68
2023-05-01T00:43:12.037Z,78.93
2023-05-01T00:45:39.202Z,79.46
2023-05-01T00:48:05.922Z,80.06
2023-05-01T00:50:33.245Z,79.96
2023-05-01T00:52:59.793Z,78.25
2023-05-01T00:55:26.478Z,77.66
2023-05-01T00:57:54.016Z,78.73
2023-05-01T01:00:22.395Z,82.48
2023-05-01T01:02:49.195Z,77.85
2023-05-01T01:05:16.142Z,77.88
2023-05-01T01:07:55.812Z,76.61
2023-05-01T01:10:46.600Z,75.39
2023-05-01T01:13:25.270Z,75.67
2023-05-01T01:16:24.499Z,76.68
2023-05-01T01:19:02.447Z,76.26
2023-05-01T01:21:32.311Z,74.31
2023-05-01T01:24:17.455Z,73.52
2023-05-01T01:27:11.265Z,73.70
2023-05-01T01:29:42.155Z,74.04
2023-05-01T01:32:26.883Z,72.81
2023-05-01T01:34:56.318Z,73.48
2023-05-01T01:37:24.976Z,74.16
2023-05-01T01:40:07.034Z,74.69
2023-05-01T01:42:56.508Z,75.06
2023-05-01T01:45:26.202Z,74.40
2023-05-01T01:47:53.021Z,74.66
2023-05-01T01:50:20.268Z,75.11
2023-05-01T01:52:49.299Z,75.16
2023-05-01T01:55:16.044Z,75.20
2023-05-01T01:57:45.252Z,75.19
2023-05-01T02:00:12.578Z,76.54
2023-05-01T02:02:39.536Z,76.02
2023-05-01T02:05:07.381Z,75.31
2023-05-01T02:07:33.842Z,75.62
2023-05-01T02:10:01.566Z,75.38
2023-05-01T02:12:28.046Z,74.31
2023-05-01T02:14:54.501Z,73.93
2023-05-01T02:17:21.287Z,74.63
2023-05-01T02:19:47.822Z,73.69
2023-05-01T02:22:14.756Z,74.55
2023-05-01T02:24:41.358Z,74.01
2023-05-01T02:27:12.555Z,74.21
2023-05-01T02:29:39.051Z,75.29
2023-05-01T02:32:05.841Z,76.00
2023-05-01T02:34:34.880Z,74.27
2023-05-01T02:37:01.816Z,74.21
2023-05-01T02:39:28.515Z,74.55
2023-05-01T02:41:55.951Z,73.78
2023-05-01T02:44:23.845Z,73.17
2023-05-01T02:46:50.489Z,73.77
2023-05-01T02:49:17.025Z,73.33
2023-05-01T02:51:43.580Z,72.99
2023-05-01T02:54:10.067Z,72.05
2023-05-01T02:56:36.530Z,72.09
2023-05-01T02:59:02.987Z,71.68
2023-05-01T03:01:29.875Z,71.51
2023-05-01T03:03:56.406Z,72.47
2023-05-01T03:06:22.922Z,72.69
2023-05-01T03:08:49.452Z,72.83
2023-05-01T03:11:15.968Z,74.21
2023-05-01T03:13:42.449Z,74.02
2023-05-01T03:16:09.001Z,75.05
2023-05-01T03:18:35.529Z,75.78
2023-05-01T03:21:02.028Z,75.25
2023-05-01T03:23:28.589Z,75.04
2023-05-01T03:25:55.056Z,74.60
2023-05-01T03:28:23.482Z,74.40
2023-05-01T03:30:50.602Z,75.39
2023-05-01T03:33:17.060Z,75.36
2023-05-01T03:35:43.541Z,74.31
2023-05-01T03:38:10.259Z,75.18
2023-05-01T03:40:36.720Z,75.45
2023-05-01T03:43:03.365Z,74.90
2023-05-01T03:45:29.875Z,74.84
2023-05-01T03:47:57.172Z,74.35
2023-05-01T03:50:23.742Z,74.31
2023-05-01T03:52:50.293Z,73.17
2023-05-01T03:55:16.791Z,73.25
2023-05-01T03:57:43.286Z,73.56
2023-05-01T04:00:11.735Z,73.72
2023-05-01T04:02:38.467Z,74.70
2023-05-01T04:05:05.303Z,75.32
2023-05-01T04:07:31.768Z,75.20
2023-05-01T04:09:58.474Z,75.53
2023-05-01T04:12:24.944Z,74.92
2023-05-01T04:14:51.423Z,74.65
2023-05-01T04:17:17.921Z,75.53
2023-05-01T04:19:44.478Z,73.47
2023-05-01T04:22:10.938Z,73.94
2023-05-01T04:24:37.432Z,73.02
2023-05-01T04:27:05.733Z,72.79
2023-05-01T04:29:32.331Z,71.95
2023-05-01T04:31:59.133Z,72.85
2023-05-01T04:34:29.171Z,72.66
2023-05-01T04:36:57.186Z,72.86
2023-05-01T04:39:23.842Z,73.15
2023-05-01T04:41:50.313Z,74.15
2023-05-01T04:44:16.770Z,75.20
2023-05-01T04:46:43.278Z,75.29
2023-05-01T04:49:09.868Z,75.37
2023-05-01T04:51:36.359Z,75.37
2023-05-01T04:54:04.649Z,75.78
2023-05-01T04:56:31.504Z,73.71
2023-05-01T04:58:58.178Z,73.19
2023-05-01T05:01:24.696Z,72.36
2023-05-01T05:03:51.731Z,72.84
2023-05-01T05:06:18.542Z,72.78
2023-05-01T05:08:45.228Z,72.05
2023-05-01T05:11:11.964Z,70.28
2023-05-01T05:13:38.442Z,70.43
2023-05-01T05:16:05.334Z,70.77
2023-05-01T05:18:31.908Z,69.32
2023-05-01T05:20:58.433Z,69.70
2023-05-01T05:23:24.910Z,70.36
2023-05-01T05:25:51.391Z,69.27
2023-05-01T05:28:18.220Z,69.56
2023-05-01T05:30:44.769Z,69.61
2023-05-01T05:33:11.358Z,69.21
2023-05-01T05:35:37.881Z,68.78
2023-05-01T05:38:04.355Z,68.97
2023-05-01T05:40:30.990Z,66.99
2023-05-01T05:42:57.735Z,68.08
2023-05-01T05:45:24.285Z,65.62
2023-05-01T05:47:50.791Z,65.76
2023-05-01T05:50:17.349Z,67.41
2023-05-01T05:52:43.811Z,67.76
2023-05-01T05:55:10.292Z,67.33
2023-05-01T05:57:37.742Z,65.67
2023-05-01T06:00:07.491Z,65.55
2023-05-01T06:02:34.150Z,65.97
2023-05-01T06:05:00.771Z,65.69
2023-05-01T06:07:28.759Z,66.12
2023-05-01T06:09:55.810Z,63.46
2023-05-01T06:12:22.463Z,64.13
2023-05-01T06:14:49.276Z,64.31
2023-05-01T06:17:15.753Z,65.49
2023-05-01T06:19:42.238Z,63.45
2023-05-01T06:22:08.711Z,65.79
2023-05-01T06:24:36.772Z,64.01
2023-05-01T06:27:03.360Z,63.87
2023-05-01T06:29:30.087Z,64.19
2023-05-01T06:31:56.704Z,64.22
2023-05-01T06:34:23.281Z,64.55
2023-05-01T06:36:49.755Z,62.01
2023-05-01T06:39:16.223Z,62.93
2023-05-01T06:41:42.711Z,62.90
2023-05-01T06:44:09.173Z,65.05
2023-05-01T06:46:35.699Z,66.15
2023-05-01T06:49:02.249Z,64.32
2023-05-01T06:51:30.272Z,66.29
2023-05-01T06:53:56.843Z,67.46
2023-05-01T06:56:23.312Z,64.01
2023-05-01T06:58:49.769Z,64.76
2023-05-01T07:01:16.878Z,63.26
2023-05-01T07:03:43.690Z,63.15
2023-05-01T07:06:10.291Z,65.05
2023-05-01T07:08:36.761Z,63.94
2023-05-01T07:11:03.229Z,62.60
2023-05-01T07:13:29.693Z,62.49
2023-05-01T07:15:56.225Z,62.72
2023-05-01T07:18:22.761Z,61.56
2023-05-01T07:20:50.288Z,64.08
2023-05-01T07:23:16.847Z,60.15
2023-05-01T07:25:45.181Z,60.51
2023-05-01T07:28:11.681Z,61.63
2023-05-01T07:30:38.322Z,61.99
2023-05-01T07:33:05.891Z,62.03
2023-05-01T07:35:35.358Z,62.69
2023-05-01T07:38:01.853Z,62.43
2023-05-01T07:40:28.351Z,62.56
2023-05-01T07:42:54.859Z,60.78
2023-05-01T07:45:21.388Z,62.46
2023-05-01T07:47:48.027Z,60.74
2023-05-01T07:50:14.608Z,60.37
2023-05-01T07:52:41.087Z,62.58
2023-05-01T07:55:08.794Z,61.43
2023-05-01T07:57:35.578Z,60.54
2023-05-01T08:00:02.065Z,61.24
2023-05-01T08:02:28.678Z,61.34
2023-05-01T08:04:55.472Z,63.80
2023-05-01T08:07:22.190Z,61.59
2023-05-01T08:09:48.667Z,62.42
2023-05-01T08:12:17.483Z,61.02
2023-05-01T08:14:43.943Z,62.11
2023-05-01T08:17:10.417Z,59.19
2023-05-01T08:19:36.896Z,61.27
2023-05-01T08:22:03.368Z,61.95
2023-05-01T08:24:29.890Z,62.93
2023-05-01T08:26:56.875Z,61.14
2023-05-01T08:29:23.351Z,60.73
2023-05-01T08:31:49.921Z,61.18
2023-05-01T08:34:17.361Z,62.05
2023-05-01T08:36:43.853Z,60.23
2023-05-01T08:39:10.299Z,62.32
2023-05-01T08:41:36.855Z,60.44
2023-05-01T08:44:03.310Z,59.99
2023-05-01T08:46:38.172Z,60.46
2023-05-01T08:49:05.440Z,60.92
2023-05-01T08:51:32.013Z,59.43
2023-05-01T08:53:58.510Z,58.84
2023-05-01T08:56:24.971Z,59.72
2023-05-01T08:58:51.498Z,60.88
2023-05-01T09:01:18.001Z,58.88
2023-05-01T09:03:44.559Z,58.88
2023-05-01T09:06:11.473Z,56.73
2023-05-01T09:08:37.972Z,57.19
2023-05-01T09:11:04.430Z,59.22
2023-05-01T09:13:31.466Z,60.34
2023-05-01T09:15:58.041Z,57.88
2023-05-01T09:18:24.655Z,57.58
2023-05-01T09:20:51.146Z,58.93
2023-05-01T09:23:18.112Z,58.93
2023-05-01T09:25:44.579Z,54.05
2023-05-01T09:28:11.027Z,59.31
2023-05-01T09:30:38.113Z,54.65
2023-05-01T09:33:11.033Z,58.81
2023-05-01T09:35:51.378Z,55.64
2023-05-01T09:38:21.314Z,55.10
2023-05-01T09:40:47.898Z,58.03
2023-05-01T09:43:14.540Z,58.08
2023-05-01T09:45:42.550Z,53.99
2023-05-01T09:48:10.961Z,55.63
2023-05-01T09:50:38.529Z,53.75
2023-05-01T09:53:06.435Z,54.52
2023-05-01T09:55:33.277Z,55.42
2023-05-01T09:57:59.784Z,53.78
2023-05-01T10:00:26.617Z,56.01
2023-05-01T10:02:53.207Z,51.46
2023-05-01T10:05:19.934Z,51.63
2023-05-01T10:07:57.566Z,53.48
2023-05-01T10:10:24.106Z,50.98
2023-05-01T10:12:50.792Z,51.40
2023-05-01T10:15:25.396Z,50.34
2023-05-01T10:17:52.590Z,51.04
2023-05-01T10:20:19.707Z,50.09
2023-05-01T10:22:46.476Z,52.83
2023-05-01T10:25:12.984Z,50.56
2023-05-01T10:27:40.593Z,50.63
2023-05-01T10:30:07.648Z,50.18
2023-05-01T10:32:34.727Z,47.97
2023-05-01T10:35:04.391Z,47.38
2023-05-01T10:37:49.196Z,47.13
2023-05-01T10:40:43.583Z,49.90
2023-05-01T10:43:29.756Z,47.69
2023-05-01T10:46:08.502Z,48.18
2023-05-01T10:48:37.923Z,49.99
2023-05-01T10:51:12.173Z,48.83
2023-05-01T10:53:39.314Z,49.00
2023-05-01T10:56:06.136Z,49.34
2023-05-01T10:58:38.593Z,49.55
2023-05-01T11:01:27.815Z,47.34
2023-05-01T11:03:58.057Z,46.80
2023-05-01T11:06:24.535Z,48.54
2023-05-01T11:08:51.085Z,46.71
2023-05-01T11:11:23.469Z,47.30
2023-05-01T11:14:04.067Z,47.73
2023-05-01T11:16:39.697Z,45.41
2023-05-01T11:19:07.223Z,45.84
2023-05-01T11:21:34.453Z,50.75
2023-05-01T11:24:01.206Z,44.95
2023-05-01T11:26:32.516Z,42.86
2023-05-01T11:28:59.930Z,44.21
2023-05-01T11:31:26.708Z,43.82
2023-05-01T11:33:55.698Z,43.97
2023-05-01T11:36:22.160Z,44.34
2023-05-01T11:38:52.502Z,48.84
2023-05-01T11:41:21.837Z,46.37
2023-05-01T11:43:55.715Z,47.65
2023-05-01T11:46:28.913Z,46.90
2023-05-01T11:48:59.025Z,47.57
2023-05-01T11:51:26.038Z,47.25
2023-05-01T11:54:03.260Z,46.50
2023-05-01T11:56:30.134Z,47.54
2023-05-01T11:58:57.551Z,47.07
2023-05-01T12:01:37.079Z,48.89
2023-05-01T12:04:03.902Z,47.23
2023-05-01T12:06:45.040Z,47.67
2023-05-01T12:09:19.063Z,46.96
2023-05-01T12:11:46.162Z,47.93
2023-05-01T12:14:12.623Z,47.92
2023-05-01T12:16:40.597Z,49.84
2023-05-01T12:19:07.472Z,49.23
2023-05-01T12:21:33.992Z,48.54
2023-05-01T12:24:16.335Z,49.35
2023-05-01T12:26:43.551Z,48.70
2023-05-01T12:29:10.058Z,47.47
2023-05-01T12:31:37.175Z,46.82
2023-05-01T12:34:07.101Z,45.61
2023-05-01T12:36:34.964Z,47.09
2023-05-01T12:39:09.061Z,46.58
2023-05-01T12:41:45.947Z,45.49
2023-05-01T12:44:22.866Z,46.46
2023-05-01T12:47:01.744Z,46.95
2023-05-01T12:49:29.213Z,45.78
2023-05-01T12:51:56.793Z,46.78
2023-05-01T12:54:39.341Z,48.07
2023-05-01T12:57:09.495Z,46.72
2023-05-01T12:59:36.165Z,46.87
2023-05-01T13:02:08.805Z,48.99
2023-05-01T13:04:35.509Z,44.51
2023-05-01T13:07:02.838Z,48.19
2023-05-01T13:09:32.284Z,43.76
2023-05-01T13:12:05.873Z,45.16
2023-05-01T13:14:41.775Z,46.42
2023-05-01T13:17:09.456Z,44.20
2023-05-01T13:19:36.284Z,43.77
2023-05-01T13:22:02.821Z,46.55
2023-05-01T13:24:37.888Z,46.12
2023-05-01T13:27:05.629Z,43.87
2023-05-01T13:29:32.587Z,45.57
2023-05-01T13:31:59.701Z,44.54
2023-05-01T13:34:30.860Z,43.42
2023-05-01T13:36:57.853Z,45.67
2023-05-01T13:39:24.546Z,48.13
2023-05-01T13:41:51.288Z,45.04
2023-05-01T13:44:18.023Z,45.83
2023-05-01T13:46:44.602Z,42.83
2023-05-01T13:49:11.261Z,45.95
2023-05-01T13:51:42.643Z,44.43
2023-05-01T13:54:12.572Z,46.64
2023-05-01T13:56:39.997Z,44.62
2023-05-01T13:59:07.068Z,41.87
2023-05-01T14:01:38.982Z,42.82
2023-05-01T14:04:08.415Z,41.77
2023-05-01T14:06:35.539Z,41.09
2023-05-01T14:09:02.093Z,41.77
2023-05-01T14:11:28.560Z,43.16
2023-05-01T14:13:55.848Z,42.27
2023-05-01T14:16:24.361Z,39.96
2023-05-01T14:18:53.385Z,40.57
2023-05-01T14:21:19.896Z,42.17
2023-05-01T14:23:46.470Z,41.36
2023-05-01T14:26:17.370Z,42.91
2023-05-01T14:28:44.587Z,41.62
2023-05-01T14:31:16.156Z,40.66
2023-05-01T14:33:45.519Z,43.32
2023-05-01T14:36:12.266Z,42.89
2023-05-01T14:38:43.235Z,40.86
2023-05-01T14:41:12.413Z,41.06
2023-05-01T14:43:39.063Z,41.37
2023-05-01T14:46:06.082Z,44.16
2023-05-01T14:48:36.248Z,40.89
2023-05-01T14:51:07.020Z,43.38
2023-05-01T14:53:33.508Z,44.73
2023-05-01T14:56:03.086Z,42.24
2023-05-01T14:58:34.085Z,45.30
2023-05-01T15:01:02.826Z,43.86
2023-05-01T15:03:29.641Z,45.05
2023-05-01T15:06:01.113Z,43.88
2023-05-01T15:08:28.030Z,42.26
2023-05-01T15:10:54.524Z,42.10
2023-05-01T15:13:21.394Z,41.49
2023-05-01T15:15:48.326Z,42.85
2023-05-01T15:18:17.212Z,45.84
2023-05-01T15:20:43.816Z,43.19
2023-05-01T15:23:10.644Z,44.81
2023-05-01T15:25:37.463Z,43.51
2023-05-01T15:28:04.306Z,42.97
2023-05-01T15:30:30.790Z,43.86
2023-05-01T15:32:57.734Z,44.35
2023-05-01T15:35:25.092Z,44.93
2023-05-01T15:37:53.012Z,46.21
2023-05-01T15:40:20.452Z,45.83
2023-05-01T15:42:49.079Z,45.58
2023-05-01T15:45:18.902Z,46.29
2023-05-01T15:47:47.964Z,44.47
2023-05-01T15:50:15.795Z,45.83
2023-05-01T15:52:43.626Z,47.45
2023-05-01T15:55:11.839Z,47.35
2023-05-01T15:57:38.945Z,46.27
2023-05-01T16:00:09.715Z,47.19
2023-05-01T16:02:39.704Z,46.50
2023-05-01T16:05:06.940Z,44.80
2023-05-01T16:07:33.417Z,46.67
2023-05-01T16:10:01.241Z,49.60
2023-05-01T16:12:28.400Z,47.06
2023-05-01T16:14:55.209Z,47.40
2023-05-01T16:17:22.678Z,46.02
2023-05-01T16:19:54.028Z,47.58
2023-05-01T16:22:21.820Z,46.99
2023-05-01T16:24:50.932Z,47.50
2023-05-01T16:27:18.817Z,45.97
2023-05-01T16:29:46.541Z,49.08
2023-05-01T16:32:15.002Z,46.16
2023-05-01T16:34:41.838Z,45.83
2023-05-01T16:37:09.226Z,44.75
2023-05-01T16:39:37.287Z,44.98
2023-05-01T16:42:05.338Z,46.55
2023-05-01T16:44:33.699Z,47.02
2023-05-01T16:47:00.469Z,48.18
2023-05-01T16:49:28.429Z,48.67
2023-05-01T16:51:57.450Z,52.22
2023-05-01T16:54:37.509Z,50.51
2023-05-01T16:57:05.971Z,50.89
2023-05-01T16:59:33.234Z,52.70
2023-05-01T17:01:59.787Z,55.61
2023-05-01T17:04:26.299Z,51.21
2023-05-01T17:06:53.005Z,50.74
2023-05-01T17:09:19.649Z,48.80
2023-05-01T17:11:52.576Z,50.73
2023-05-01T17:14:29.470Z,51.31
2023-05-01T17:16:58.633Z,55.40
2023-05-01T17:19:25.816Z,57.67
2023-05-01T17:21:52.279Z,57.61
2023-05-01T17:24:19.015Z,60.11
2023-05-01T17:26:46.609Z,58.78
2023-05-01T17:29:13.378Z,58.00
2023-05-01T17:31:41.735Z,54.28
2023-05-01T17:34:08.510Z,58.78
2023-05-01T17:36:36.632Z,59.78
2023-05-01T17:39:05.956Z,59.46
2023-05-01T17:41:34.027Z,61.94
2023-05-01T17:44:01.527Z,62.94
2023-05-01T17:46:28.057Z,60.38
2023-05-01T17:48:54.585Z,60.47
2023-05-01T17:51:21.072Z,62.96
2023-05-01T17:53:47.689Z,61.73
2023-05-01T17:56:14.157Z,60.95
2023-05-01T17:58:41.224Z,62.08
2023-05-01T18:01:07.801Z,63.34
2023-05-01T18:03:34.587Z,64.70
2023-05-01T18:06:01.352Z,62.12
2023-05-01T18:08:27.930Z,64.18
2023-05-01T18:10:54.411Z,62.28
2023-05-01T18:13:27.727Z,61.50
2023-05-01T18:15:55.378Z,64.82
2023-05-01T18:18:21.868Z,60.94
2023-05-01T18:20:48.881Z,61.31
2023-05-01T18:23:17.727Z,58.19
2023-05-01T18:25:44.327Z,59.34
2023-05-01T18:28:10.800Z,60.54
2023-05-01T18:30:37.699Z,61.57
2023-05-01T18:33:04.683Z,61.80
2023-05-01T18:35:31.201Z,63.34
2023-05-01T18:37:57.682Z,62.60
2023-05-01T18:40:24.258Z,64.47
2023-05-01T18:42:51.076Z,63.43
2023-05-01T18:45:17.702Z,63.73
2023-05-01T18:47:44.247Z,63.53
2023-05-01T18:50:11.350Z,63.27
2023-05-01T18:52:37.944Z,63.53
2023-05-01T18:55:04.635Z,64.46
2023-05-01T18:57:32.518Z,66.72
2023-05-01T19:00:01.021Z,66.77
2023-05-01T19:02:27.849Z,68.56
2023-05-01T19:04:57.764Z,71.78
2023-05-01T19:07:25.002Z,75.21
2023-05-01T19:09:51.750Z,76.97
2023-05-01T19:12:18.228Z,80.27
2023-05-01T19:14:44.973Z,83.73
2023-05-01T19:17:11.505Z,85.04
2023-05-01T19:19:37.991Z,88.37
2023-05-01T19:22:04.496Z,91.82
2023-05-01T19:24:30.987Z,96.12
2023-05-01T19:26:57.499Z,99.66
2023-05-01T19:29:23.984Z,100.00
2023-05-01T19:31:50.582Z,100.00
2023-05-01T19:34:17.109Z,100.00
2023-05-01T19:36:43.628Z,100.00
2023-05-01T19:39:10.283Z,100.00
2023-05-01T19:41:36.988Z,100.00
2023-05-01T19:44:03.526Z,100.00
2023-05-01T19:46:30.083Z,100.00
2023-05-01T19:48:56.592Z,100.00
2023-05-01T19:51:23.087Z,100.00
2023-05-01T19:53:49.566Z,100.00
2023-05-01T19:56:16.050Z,100.00
2023-05-01T19:58:42.593Z,100.00
2023-05-01T20:01:11.686Z,100.00
2023-05-01T20:03:38.483Z,100.00
2023-05-01T20:06:06.314Z,100.00
2023-05-01T20:08:33.567Z,100.00
2023-05-01T20:11:01.148Z,100.00
2023-05-01T20:13:27.644Z,100.00
2023-05-01T20:15:54.184Z,100.00
2023-05-01T20:18:20.751Z,100.00
2023-05-01T20:20:47.249Z,100.00
2023-05-01T20:23:15.508Z,100.00
2023-05-01T20:25:42.355Z,100.00
2023-05-01T20:28:10.345Z,100.00
2023-05-01T20:30:39.085Z,100.00
2023-05-01T20:33:07.122Z,100.00
2023-05-01T20:35:33.828Z,100.00
2023-05-01T20:38:01.063Z,100.00
2023-05-01T20:40:28.291Z,100.00
2023-05-01T20:42:55.361Z,100.00
2023-05-01T20:45:21.868Z,100.00
2023-05-01T20:47:48.725Z,100.00
2023-05-01T20:50:17.166Z,100.00
2023-05-01T20:52:44.490Z,100.00
2023-05-01T20:55:11.502Z,100.00
2023-05-01T20:57:38.569Z,100.00
2023-05-01T21:00:05.742Z,100.00
2023-05-01T21:02:32.544Z,100.00
2023-05-01T21:04:59.084Z,100.00
2023-05-01T21:07:25.844Z,100.00
2023-05-01T21:09:52.397Z,100.00
2023-05-01T21:12:18.858Z,100.00
2023-05-01T21:14:46.275Z,100.00
2023-05-01T21:17:12.775Z,100.00
2023-05-01T21:19:43.517Z,100.00
2023-05-01T21:22:22.389Z,100.00
2023-05-01T21:24:54.092Z,100.00
2023-05-01T21:27:21.127Z,100.00
2023-05-01T21:30:06.123Z,100.00
2023-05-01T21:32:33.430Z,100.00
2023-05-01T21:35:00.427Z,100.00
2023-05-01T21:37:27.004Z,100.00
2023-05-01T21:39:53.467Z,100.00
2023-05-01T21:42:19.924Z,100.00
2023-05-01T21:44:46.635Z,100.00
2023-05-01T21:47:13.317Z,100.00
2023-05-01T21:49:39.935Z,100.00
2023-05-01T21:52:08.630Z,100.00
2023-05-01T21:54:39.386Z,100.00
2023-05-01T21:57:07.656Z,100.00
2023-05-01T21:59:37.919Z,100.00
2023-05-01T22:02:08.563Z,100.00
2023-05-01T22:04:35.156Z,100.00
2023-05-01T22:07:01.665Z,100.00
2023-05-01T22:09:28.285Z,100.00
2023-05-01T22:11:54.757Z,100.00
2023-05-01T22:14:21.517Z,100.00
2023-05-01T22:16:48.065Z,100.00
2023-05-01T22:19:15.385Z,100.00
2023-05-01T22:21:42.061Z,100.00
2023-05-01T22:24:08.531Z,100.00
2023-05-01T22:26:35.085Z,100.00
2023-05-01T22:29:01.578Z,100.00
2023-05-01T22:31:28.073Z,100.00
2023-05-01T22:33:55.251Z,100.00
2023-05-01T22:36:21.735Z,100.00
2023-05-01T22:38:48.212Z,100.00
2023-05-01T22:41:15.195Z,100.00
2023-05-01T22:43:41.952Z,100.00
2023-05-01T22:46:08.452Z,100.00
2023-05-01T22:48:34.956Z,100.00
2023-05-01T22:51:01.431Z,100.00
2023-05-01T22:53:29.129Z,100.00
2023-05-01T22:55:55.613Z,100.00
2023-05-01T22:58:22.348Z,100.00
2023-05-01T23:00:48.804Z,100.00
2023-05-01T23:03:15.476Z,100.00
2023-05-01T23:05:42.049Z,100.00
2023-05-01T23:08:09.009Z,100.00
2023-05-01T23:10:35.654Z,100.00
2023-05-01T23:13:02.155Z,100.00
2023-05-01T23:15:28.616Z,100.00
2023-05-01T23:17:55.971Z,100.00
2023-05-01T23:20:23.480Z,100.00
2023-05-01T23:22:50.556Z,100.00
2023-05-01T23:25:20.565Z,100.00
2023-05-01T23:27:48.299Z,100.00
2023-05-01T23:30:14.797Z,100.00
2023-05-01T23:32:41.405Z,100.00
2023-05-01T23:35:15.230Z,100.00
2023-05-01T23:37:41.775Z,100.00
2023-05-01T23:40:09.378Z,100.00
2023-05-01T23:42:37.713Z,100.00
2023-05-01T23:45:05.795Z,100.00
2023-05-01T23:47:32.390Z,100.00
2023-05-01T23:49:58.981Z,100.00
2023-05-01T23:52:25.633Z,100.00
2023-05-01T23:54:52.703Z,100.00
2023-05-01T23:57:19.488Z,100.00
2023-05-01T23:59:45.975Z,100.00
